createdAt,value
2017-07-02T00:02:07.820Z,17.70
2017-07-02T00:04:36.604Z,17.58
2017-07-02T00:07:04.940Z,17.70
2017-07-02T00:09:33.292Z,17.77
2017-07-02T00:12:01.908Z,17.90
2017-07-02T00:14:30.249Z,18.02
2017-07-02T00:16:58.582Z,17.95
2017-07-02T00:19:27.683Z,17.95
2017-07-02T00:21:56.018Z,17.97
2017-07-02T00:24:24.366Z,18.08
2017-07-02T00:26:53.023Z,18.01
2017-07-02T00:29:22.130Z,17.97
2017-07-02T00:31:50.506Z,17.80
2017-07-02T00:34:19.158Z,17.95
2017-07-02T00:36:47.489Z,17.97
2017-07-02T00:39:15.832Z,17.93
2017-07-02T00:41:44.839Z,17.86
2017-07-02T00:44:13.187Z,17.88
2017-07-02T00:46:41.530Z,17.95
2017-07-02T00:49:10.174Z,17.87
2017-07-02T00:51:39.316Z,18.09
2017-07-02T00:54:07.667Z,18.07
2017-07-02T00:56:36.297Z,18.15
2017-07-02T00:59:04.633Z,18.22
2017-07-02T01:01:32.977Z,18.45
2017-07-02T01:04:02.053Z,18.21
2017-07-02T01:06:30.393Z,18.14
2017-07-02T01:08:58.743Z,18.04
2017-07-02T01:11:27.406Z,17.99
2017-07-02T01:13:55.732Z,17.98
2017-07-02T01:16:24.067Z,17.92
2017-07-02T01:18:52.880Z,18.02
2017-07-02T01:21:21.218Z,18.21
2017-07-02T01:23:49.559Z,18.22
2017-07-02T01:26:18.367Z,18.21
2017-07-02T01:28:46.700Z,18.21
2017-07-02T01:31:15.823Z,18.24
2017-07-02T01:33:44.459Z,17.95
2017-07-02T01:36:12.788Z,17.93
2017-07-02T01:38:41.133Z,17.88
2017-07-02T01:41:10.073Z,17.84
2017-07-02T01:43:38.416Z,17.75
2017-07-02T01:46:07.545Z,17.87
2017-07-02T01:48:36.369Z,17.92
2017-07-02T01:51:04.723Z,17.81
2017-07-02T01:53:33.058Z,17.87
2017-07-02T01:56:01.708Z,17.85
2017-07-02T01:58:30.060Z,17.79
2017-07-02T02:01:16.466Z,17.90
2017-07-02T02:03:44.794Z,17.78
2017-07-02T02:06:13.156Z,17.73
2017-07-02T02:08:41.975Z,17.67
2017-07-02T02:11:10.316Z,17.53
2017-07-02T02:13:38.666Z,17.47
2017-07-02T02:16:07.322Z,17.59
2017-07-02T02:18:35.690Z,17.51
2017-07-02T02:21:04.053Z,17.47
2017-07-02T02:23:32.725Z,17.39
2017-07-02T02:26:01.139Z,17.21
2017-07-02T02:28:29.500Z,17.38
2017-07-02T02:30:58.312Z,17.35
2017-07-02T02:33:26.673Z,17.35
2017-07-02T02:35:55.801Z,17.37
2017-07-02T02:38:24.435Z,17.45
2017-07-02T02:40:52.773Z,17.46
2017-07-02T02:43:21.136Z,17.28
2017-07-02T02:45:50.036Z,17.13
2017-07-02T02:48:18.365Z,17.13
2017-07-02T02:50:46.711Z,17.27
2017-07-02T02:53:15.532Z,17.33
2017-07-02T02:55:43.867Z,17.22
2017-07-02T02:58:12.217Z,17.26
2017-07-02T03:00:40.977Z,17.24
2017-07-02T03:03:09.305Z,17.07
2017-07-02T03:05:37.650Z,17.26
2017-07-02T03:08:06.295Z,17.25
2017-07-02T03:10:34.632Z,17.37
2017-07-02T03:13:02.998Z,17.35
2017-07-02T03:15:32.478Z,17.46
2017-07-02T03:18:00.842Z,17.13
2017-07-02T03:20:29.210Z,17.02
2017-07-02T03:22:58.055Z,17.10
2017-07-02T03:25:26.408Z,17.14
2017-07-02T03:27:54.754Z,17.06
2017-07-02T03:30:23.494Z,17.13
2017-07-02T03:32:51.825Z,17.05
2017-07-02T03:35:20.158Z,17.07
2017-07-02T03:37:49.692Z,17.18
2017-07-02T03:40:18.026Z,17.22
2017-07-02T03:42:46.400Z,17.32
2017-07-02T03:45:15.244Z,17.31
2017-07-02T03:47:43.574Z,17.39
2017-07-02T03:50:11.947Z,17.55
2017-07-02T03:52:40.849Z,17.45
2017-07-02T03:55:09.176Z,17.53
2017-07-02T03:57:37.501Z,17.49
2017-07-02T04:00:07.380Z,17.43
2017-07-02T04:02:35.799Z,17.56
2017-07-02T04:05:04.144Z,17.67
2017-07-02T04:07:32.772Z,17.58
2017-07-02T04:10:01.113Z,17.73
2017-07-02T04:12:29.451Z,17.54
2017-07-02T04:14:58.090Z,17.37
2017-07-02T04:17:26.441Z,17.50
2017-07-02T04:19:54.798Z,17.59
2017-07-02T04:22:23.677Z,17.74
2017-07-02T04:24:52.019Z,17.65
2017-07-02T04:27:20.381Z,17.71
2017-07-02T04:29:49.125Z,17.57
2017-07-02T04:32:17.476Z,17.48
2017-07-02T04:34:45.822Z,17.60
2017-07-02T04:37:14.569Z,17.99
2017-07-02T04:39:42.912Z,18.09
2017-07-02T04:42:11.277Z,18.01
2017-07-02T04:44:40.199Z,17.83
2017-07-02T04:47:08.531Z,17.99
2017-07-02T04:49:36.867Z,18.01
2017-07-02T04:52:06.293Z,18.14
2017-07-02T04:54:35.492Z,18.22
2017-07-02T04:57:03.825Z,18.16
2017-07-02T04:59:32.498Z,18.11
2017-07-02T05:02:00.835Z,17.97
2017-07-02T05:04:29.175Z,17.91
2017-07-02T05:06:58.695Z,17.95
2017-07-02T05:09:27.814Z,18.18
2017-07-02T05:11:56.145Z,18.14
2017-07-02T05:14:24.770Z,17.80
2017-07-02T05:16:53.103Z,17.88
2017-07-02T05:19:21.483Z,18.08
2017-07-02T05:21:50.306Z,18.05
2017-07-02T05:24:18.643Z,17.93
2017-07-02T05:26:46.972Z,18.02
2017-07-02T05:29:16.090Z,17.88
2017-07-02T05:31:44.462Z,17.83
2017-07-02T05:34:12.796Z,18.07
2017-07-02T05:36:41.423Z,18.50
2017-07-02T05:39:09.757Z,18.74
2017-07-02T05:41:38.104Z,18.96
2017-07-02T05:44:06.775Z,19.03
2017-07-02T05:46:35.106Z,19.27
2017-07-02T05:49:03.460Z,19.46
2017-07-02T05:51:32.511Z,19.29
2017-07-02T05:54:00.846Z,19.53
2017-07-02T05:56:29.195Z,19.44
2017-07-02T05:58:58.364Z,19.21
2017-07-02T06:01:26.709Z,19.31
2017-07-02T06:03:55.805Z,19.04
2017-07-02T06:06:24.409Z,19.20
2017-07-02T06:08:52.775Z,19.32
2017-07-02T06:11:21.878Z,19.25
2017-07-02T06:13:51.092Z,19.49
2017-07-02T06:16:19.438Z,19.61
2017-07-02T06:18:47.770Z,19.59
2017-07-02T06:21:16.395Z,19.61
2017-07-02T06:23:44.713Z,19.27
2017-07-02T06:26:13.051Z,19.63
2017-07-02T06:28:41.764Z,19.76
2017-07-02T06:31:10.109Z,19.38
2017-07-02T06:33:38.453Z,19.26
2017-07-02T06:36:07.134Z,19.41
2017-07-02T06:38:35.501Z,19.20
2017-07-02T06:41:03.838Z,19.52
2017-07-02T06:43:32.452Z,19.90
2017-07-02T06:46:00.822Z,20.22
2017-07-02T06:48:29.181Z,20.44
2017-07-02T06:50:57.873Z,20.33
2017-07-02T06:53:26.231Z,20.06
2017-07-02T06:55:54.578Z,20.38
2017-07-02T06:58:23.329Z,20.06
2017-07-02T07:00:52.133Z,20.05
2017-07-02T07:03:20.488Z,20.54
2017-07-02T07:05:49.129Z,20.33
2017-07-02T07:08:17.470Z,20.30
2017-07-02T07:10:45.818Z,20.40
2017-07-02T07:13:14.639Z,20.21
2017-07-02T07:15:42.974Z,19.91
2017-07-02T07:18:11.324Z,19.75
2017-07-02T07:20:40.216Z,19.97
2017-07-02T07:23:08.563Z,20.11
2017-07-02T07:25:36.913Z,19.81
2017-07-02T07:28:05.585Z,19.76
2017-07-02T07:30:33.910Z,19.73
2017-07-02T07:33:03.030Z,19.74
2017-07-02T07:35:31.660Z,19.59
2017-07-02T07:37:59.991Z,19.72
2017-07-02T07:40:28.331Z,20.08
2017-07-02T07:42:57.405Z,20.15
2017-07-02T07:45:25.765Z,20.17
2017-07-02T07:47:54.097Z,20.00
2017-07-02T07:50:23.717Z,20.17
2017-07-02T07:52:52.061Z,20.14
2017-07-02T07:55:20.398Z,20.13
2017-07-02T07:57:49.142Z,20.25
2017-07-02T08:00:17.489Z,19.78
2017-07-02T08:02:45.993Z,20.15
2017-07-02T08:05:14.813Z,20.32
2017-07-02T08:07:43.326Z,20.44
2017-07-02T08:10:11.679Z,20.46
2017-07-02T08:12:40.440Z,20.21
2017-07-02T08:15:08.786Z,20.62
2017-07-02T08:17:37.153Z,20.55
2017-07-02T08:20:05.886Z,20.46
2017-07-02T08:22:34.232Z,20.40
2017-07-02T08:25:02.565Z,20.42
2017-07-02T08:27:31.516Z,20.57
2017-07-02T08:29:59.844Z,20.45
2017-07-02T08:32:28.179Z,20.52
2017-07-02T08:34:56.776Z,20.86
2017-07-02T08:37:25.118Z,19.96
2017-07-02T08:39:53.457Z,19.94
2017-07-02T08:42:22.121Z,19.93
2017-07-02T08:44:51.243Z,20.29
2017-07-02T08:47:19.577Z,20.50
2017-07-02T08:49:48.502Z,20.49
2017-07-02T08:52:16.828Z,20.28
2017-07-02T08:54:45.163Z,20.17
2017-07-02T08:57:13.782Z,20.02
2017-07-02T08:59:42.100Z,20.19
2017-07-02T09:02:10.451Z,20.46
2017-07-02T09:04:39.093Z,20.56
2017-07-02T09:07:07.431Z,20.84
2017-07-02T09:09:35.754Z,20.85
2017-07-02T09:12:04.618Z,20.65
2017-07-02T09:14:32.962Z,20.57
2017-07-02T09:17:01.293Z,20.47
2017-07-02T09:19:29.924Z,20.69
2017-07-02T09:21:58.256Z,20.34
2017-07-02T09:24:26.576Z,20.02
2017-07-02T09:26:55.324Z,20.12
2017-07-02T09:29:23.653Z,20.11
2017-07-02T09:31:51.979Z,20.28
2017-07-02T09:34:20.852Z,20.26
2017-07-02T09:36:49.975Z,20.24
2017-07-02T09:39:18.297Z,20.16
2017-07-02T09:41:46.971Z,20.35
2017-07-02T09:44:15.335Z,20.09
2017-07-02T09:46:43.727Z,20.12
2017-07-02T09:49:12.491Z,20.19
2017-07-02T09:51:40.824Z,20.23
2017-07-02T09:54:09.180Z,20.10
2017-07-02T09:56:38.053Z,19.90
2017-07-02T09:59:06.452Z,20.20
2017-07-02T10:01:34.776Z,20.35
2017-07-02T10:04:03.410Z,20.16
2017-07-02T10:06:31.748Z,20.18
2017-07-02T10:09:00.098Z,20.16
2017-07-02T10:11:28.918Z,20.24
2017-07-02T10:13:57.260Z,19.91
2017-07-02T10:16:25.607Z,19.58
2017-07-02T10:18:54.661Z,19.63
2017-07-02T10:21:23.002Z,19.64
2017-07-02T10:23:51.351Z,19.75
2017-07-02T10:26:20.042Z,19.74
2017-07-02T10:28:48.375Z,19.72
2017-07-02T10:31:16.689Z,19.53
2017-07-02T10:33:45.540Z,19.52
2017-07-02T10:36:13.903Z,19.48
2017-07-02T10:38:42.259Z,19.81
2017-07-02T10:41:11.398Z,19.85
2017-07-02T10:43:39.754Z,20.14
2017-07-02T10:46:08.104Z,20.37
2017-07-02T10:48:36.720Z,20.11
2017-07-02T10:51:05.072Z,20.05
2017-07-02T10:53:33.406Z,19.95
2017-07-02T10:56:02.300Z,20.07
2017-07-02T10:58:30.657Z,19.76
2017-07-02T11:00:59.005Z,19.93
2017-07-02T11:03:28.194Z,19.89
2017-07-02T11:05:56.562Z,20.35
2017-07-02T11:08:24.914Z,20.33
2017-07-02T11:10:53.776Z,20.21
2017-07-02T11:13:22.136Z,20.46
2017-07-02T11:15:50.539Z,20.41
2017-07-02T11:18:19.167Z,20.74
2017-07-02T11:20:47.502Z,20.69
2017-07-02T11:23:15.845Z,20.55
2017-07-02T11:25:44.690Z,20.50
2017-07-02T11:28:13.022Z,20.89
2017-07-02T11:30:41.392Z,20.81
2017-07-02T11:33:10.048Z,20.81
2017-07-02T11:35:38.415Z,20.87
2017-07-02T11:38:06.761Z,20.86
2017-07-02T11:40:36.397Z,20.30
2017-07-02T11:43:04.742Z,20.31
2017-07-02T11:45:33.086Z,20.82
2017-07-02T11:48:02.020Z,20.87
2017-07-02T11:50:30.353Z,20.89
2017-07-02T11:52:58.686Z,20.96
2017-07-02T11:55:28.047Z,21.01
2017-07-02T11:57:56.390Z,21.16
2017-07-02T12:00:24.735Z,21.33
2017-07-02T12:02:53.364Z,21.33
2017-07-02T12:05:21.707Z,21.18
2017-07-02T12:07:50.868Z,21.02
2017-07-02T12:10:19.952Z,20.83
2017-07-02T12:12:48.312Z,21.05
2017-07-02T12:15:16.659Z,20.94
2017-07-02T12:17:46.031Z,20.96
2017-07-02T12:20:14.358Z,21.10
2017-07-02T12:22:42.708Z,21.09
2017-07-02T12:25:11.357Z,20.89
2017-07-02T12:27:39.683Z,20.90
2017-07-02T12:30:08.789Z,20.77
2017-07-02T12:32:37.621Z,20.91
2017-07-02T12:35:05.958Z,21.04
2017-07-02T12:37:35.066Z,20.90
2017-07-02T12:40:03.689Z,21.03
2017-07-02T12:42:32.027Z,21.50
2017-07-02T12:45:00.375Z,21.64
2017-07-02T12:47:29.304Z,21.43
2017-07-02T12:49:57.631Z,21.56
2017-07-02T12:52:25.981Z,21.57
2017-07-02T12:54:54.915Z,21.69
2017-07-02T12:57:23.253Z,21.74
2017-07-02T12:59:51.579Z,21.88
2017-07-02T13:02:20.273Z,22.43
2017-07-02T13:04:48.629Z,22.61
2017-07-02T13:07:16.997Z,23.00
2017-07-02T13:09:45.641Z,23.51
2017-07-02T13:12:13.990Z,23.81
2017-07-02T13:14:43.153Z,24.28
2017-07-02T13:17:12.110Z,24.72
2017-07-02T13:19:40.438Z,24.85
2017-07-02T13:22:08.756Z,24.18
2017-07-02T13:24:37.376Z,24.16
2017-07-02T13:27:05.749Z,24.62
2017-07-02T13:29:34.068Z,24.42
2017-07-02T13:32:02.769Z,24.79
2017-07-02T13:34:31.100Z,24.60
2017-07-02T13:36:59.449Z,24.15
2017-07-02T13:39:28.299Z,24.66
2017-07-02T13:41:56.704Z,24.88
2017-07-02T13:44:25.083Z,24.67
2017-07-02T13:46:53.878Z,25.04
2017-07-02T13:49:22.221Z,25.04
2017-07-02T13:51:50.568Z,25.16
2017-07-02T13:54:19.199Z,25.30
2017-07-02T13:56:47.544Z,24.64
2017-07-02T13:59:15.910Z,24.71
2017-07-02T14:01:44.979Z,25.11
2017-07-02T14:04:13.941Z,24.96
2017-07-02T14:06:42.300Z,24.15
2017-07-02T14:09:11.047Z,23.73
2017-07-02T14:11:40.202Z,23.34
2017-07-02T14:14:08.549Z,23.27
2017-07-02T14:16:37.170Z,23.88
2017-07-02T14:19:06.283Z,24.42
2017-07-02T14:21:35.373Z,24.56
2017-07-02T14:24:04.986Z,24.35
2017-07-02T14:26:33.347Z,24.15
2017-07-02T14:29:01.680Z,24.74
2017-07-02T14:31:30.427Z,24.76
2017-07-02T14:33:58.770Z,24.31
2017-07-02T14:36:27.112Z,24.12
2017-07-02T14:38:55.856Z,23.87
2017-07-02T14:41:24.198Z,23.59
2017-07-02T14:43:52.560Z,23.95
2017-07-02T14:46:21.957Z,24.72
2017-07-02T14:48:50.304Z,25.26
2017-07-02T14:51:19.391Z,24.68
2017-07-02T14:53:48.054Z,24.85
2017-07-02T14:56:16.401Z,25.06
2017-07-02T14:58:44.724Z,24.49
2017-07-02T15:01:13.346Z,24.15
2017-07-02T15:03:41.699Z,24.02
2017-07-02T15:06:10.295Z,24.02
2017-07-02T15:08:39.551Z,24.04
2017-07-02T15:11:07.891Z,24.37
2017-07-02T15:13:36.217Z,24.26
2017-07-02T15:16:04.952Z,24.56
2017-07-02T15:18:33.285Z,24.58
2017-07-02T15:21:01.637Z,24.88
2017-07-02T15:23:30.370Z,24.71
2017-07-02T15:25:58.768Z,24.29
2017-07-02T15:28:27.863Z,23.71
2017-07-02T15:30:56.561Z,23.42
2017-07-02T15:33:24.933Z,23.70
2017-07-02T15:35:53.337Z,23.55
2017-07-02T15:38:22.201Z,23.66
2017-07-02T15:40:50.514Z,23.52
2017-07-02T15:43:18.861Z,23.58
2017-07-02T15:45:47.520Z,23.21
2017-07-02T15:48:15.873Z,23.51
2017-07-02T15:50:44.247Z,23.32
2017-07-02T15:53:13.328Z,23.35
2017-07-02T15:55:41.679Z,23.14
2017-07-02T15:58:10.043Z,23.10
2017-07-02T16:00:39.491Z,22.95
2017-07-02T16:03:07.819Z,22.75
2017-07-02T16:05:36.169Z,22.97
2017-07-02T16:08:05.127Z,22.89
2017-07-02T16:10:33.473Z,23.24
2017-07-02T16:13:01.822Z,23.57
2017-07-02T16:15:30.606Z,23.72
2017-07-02T16:17:58.929Z,23.55
2017-07-02T16:20:28.039Z,23.24
2017-07-02T16:22:56.667Z,23.10
2017-07-02T16:25:25.023Z,23.19
2017-07-02T16:27:53.400Z,23.24
2017-07-02T16:30:22.255Z,23.49
2017-07-02T16:32:50.604Z,23.47
2017-07-02T16:35:18.930Z,23.78
2017-07-02T16:37:48.025Z,23.56
2017-07-02T16:40:16.360Z,23.71
2017-07-02T16:42:44.685Z,23.49
2017-07-02T16:45:13.561Z,22.96
2017-07-02T16:47:41.889Z,22.75
2017-07-02T16:50:10.244Z,22.56
2017-07-02T16:52:38.887Z,22.63
2017-07-02T16:55:07.248Z,22.59
2017-07-02T16:57:35.573Z,22.61
2017-07-02T17:00:05.299Z,22.57
2017-07-02T17:02:33.625Z,22.33
2017-07-02T17:05:01.960Z,22.11
2017-07-02T17:07:30.575Z,21.93
2017-07-02T17:09:58.900Z,21.71
2017-07-02T17:12:27.236Z,21.78
2017-07-02T17:14:55.871Z,21.93
2017-07-02T17:17:24.188Z,22.08
2017-07-02T17:19:52.515Z,22.08
2017-07-02T17:22:21.619Z,22.22
2017-07-02T17:24:49.985Z,22.17
2017-07-02T17:27:19.102Z,22.03
2017-07-02T17:29:47.785Z,21.72
2017-07-02T17:32:16.130Z,21.61
2017-07-02T17:34:44.456Z,22.00
2017-07-02T17:37:13.308Z,22.16
2017-07-02T17:39:41.653Z,22.03
2017-07-02T17:42:10.020Z,21.78
2017-07-02T17:44:38.824Z,21.42
2017-07-02T17:47:07.155Z,21.24
2017-07-02T17:49:35.504Z,21.27
2017-07-02T17:52:04.442Z,21.25
2017-07-02T17:54:32.789Z,21.20
2017-07-02T17:57:01.123Z,20.83
2017-07-02T17:59:29.745Z,20.92
2017-07-02T18:01:58.857Z,20.96
2017-07-02T18:04:27.207Z,21.12
2017-07-02T18:06:55.975Z,21.00
2017-07-02T18:09:24.349Z,20.92
2017-07-02T18:11:52.771Z,20.65
2017-07-02T18:14:21.418Z,20.75
2017-07-02T18:16:49.907Z,20.58
2017-07-02T18:19:18.317Z,20.65
2017-07-02T18:21:46.942Z,20.81
2017-07-02T18:24:15.283Z,20.68
2017-07-02T18:26:43.655Z,20.46
2017-07-02T18:29:13.250Z,20.15
2017-07-02T18:31:41.612Z,20.19
2017-07-02T18:34:09.965Z,20.32
2017-07-02T18:36:38.614Z,20.41
2017-07-02T18:39:07.715Z,20.47
2017-07-02T18:41:36.087Z,20.31
2017-07-02T18:44:04.751Z,20.22
2017-07-02T18:46:33.108Z,20.25
2017-07-02T18:49:01.455Z,20.15
2017-07-02T18:51:30.434Z,20.01
2017-07-02T18:53:58.765Z,20.12
2017-07-02T18:56:27.115Z,20.09
2017-07-02T18:58:55.876Z,20.10
2017-07-02T19:01:24.197Z,20.06
2017-07-02T19:03:52.551Z,20.02
2017-07-02T19:06:21.340Z,19.81
2017-07-02T19:08:49.697Z,20.02
2017-07-02T19:11:18.798Z,19.76
2017-07-02T19:13:47.804Z,19.91
2017-07-02T19:16:16.140Z,19.73
2017-07-02T19:18:44.484Z,19.78
2017-07-02T19:21:13.139Z,19.75
2017-07-02T19:23:41.469Z,19.80
2017-07-02T19:26:09.816Z,19.78
2017-07-02T19:28:38.686Z,19.83
2017-07-02T19:31:07.104Z,19.71
2017-07-02T19:33:35.478Z,19.64
2017-07-02T19:36:04.217Z,19.65
2017-07-02T19:38:33.322Z,19.51
2017-07-02T19:41:02.426Z,19.29
2017-07-02T19:43:31.210Z,19.14
2017-07-02T19:45:59.543Z,19.13
2017-07-02T19:48:27.886Z,19.02
2017-07-02T19:50:56.539Z,19.00
2017-07-02T19:53:25.639Z,18.93
2017-07-02T19:55:53.995Z,18.93
2017-07-02T19:58:22.770Z,18.89
2017-07-02T20:00:51.117Z,18.80
2017-07-02T20:03:19.457Z,18.76
2017-07-02T20:05:48.371Z,18.83
2017-07-02T20:08:16.698Z,18.70
2017-07-02T20:10:45.032Z,18.75
2017-07-02T20:13:14.088Z,18.75
2017-07-02T20:15:42.416Z,18.48
2017-07-02T20:18:10.749Z,18.49
2017-07-02T20:20:39.727Z,18.52
2017-07-02T20:23:08.048Z,18.33
2017-07-02T20:25:36.375Z,18.40
2017-07-02T20:28:04.989Z,18.40
2017-07-02T20:30:34.114Z,18.22
2017-07-02T20:33:02.465Z,18.31
2017-07-02T20:35:31.101Z,18.16
2017-07-02T20:37:59.451Z,18.14
2017-07-02T20:40:27.793Z,18.20
2017-07-02T20:42:57.030Z,18.17
2017-07-02T20:45:25.361Z,18.06
2017-07-02T20:47:53.685Z,18.03
2017-07-02T20:50:22.463Z,17.93
2017-07-02T20:52:50.817Z,17.89
2017-07-02T20:55:19.162Z,17.90
2017-07-02T20:57:47.765Z,17.94
2017-07-02T21:00:16.101Z,17.93
2017-07-02T21:02:44.431Z,17.95
2017-07-02T21:05:13.225Z,17.95
2017-07-02T21:07:42.396Z,17.96
2017-07-02T21:10:10.739Z,17.98
2017-07-02T21:12:39.363Z,17.89
2017-07-02T21:15:07.703Z,17.87
2017-07-02T21:17:36.027Z,17.89
2017-07-02T21:20:04.687Z,17.79
2017-07-02T21:22:33.014Z,17.86
2017-07-02T21:25:01.351Z,17.75
2017-07-02T21:27:30.497Z,17.50
2017-07-02T21:29:58.838Z,17.48
2017-07-02T21:32:27.170Z,17.48
2017-07-02T21:34:55.811Z,17.39
2017-07-02T21:37:24.179Z,17.32
2017-07-02T21:39:52.521Z,17.19
2017-07-02T21:42:21.170Z,17.09
2017-07-02T21:44:49.509Z,17.11
2017-07-02T21:47:17.852Z,17.01
2017-07-02T21:49:46.652Z,17.07
2017-07-02T21:52:15.003Z,17.11
2017-07-02T21:54:44.118Z,16.98
2017-07-02T21:57:12.741Z,17.01
2017-07-02T21:59:41.091Z,16.82
2017-07-02T22:02:09.434Z,16.93
2017-07-02T22:04:38.351Z,16.67
2017-07-02T22:07:06.743Z,16.75
2017-07-02T22:09:35.087Z,16.76
2017-07-02T22:12:04.205Z,16.68
2017-07-02T22:14:32.548Z,16.30
2017-07-02T22:17:00.885Z,16.38
2017-07-02T22:19:29.557Z,16.33
2017-07-02T22:21:57.889Z,16.43
2017-07-02T22:24:26.240Z,16.24
2017-07-02T22:26:55.082Z,16.43
2017-07-02T22:29:23.423Z,16.33
2017-07-02T22:31:51.784Z,16.38
2017-07-02T22:34:20.527Z,16.33
2017-07-02T22:36:48.881Z,16.44
2017-07-02T22:39:17.218Z,16.46
2017-07-02T22:41:46.202Z,16.33
2017-07-02T22:44:14.558Z,16.30
2017-07-02T22:46:43.692Z,16.39
2017-07-02T22:49:12.355Z,16.35
2017-07-02T22:51:40.714Z,16.24
2017-07-02T22:54:09.046Z,15.98
2017-07-02T22:56:37.886Z,15.77
2017-07-02T22:59:06.231Z,15.89
2017-07-02T23:01:34.570Z,15.91
2017-07-02T23:04:03.355Z,16.02
2017-07-02T23:06:31.724Z,15.93
2017-07-02T23:09:00.043Z,15.76
2017-07-02T23:11:28.644Z,15.78
2017-07-02T23:13:57.014Z,15.86
2017-07-02T23:16:25.358Z,15.54
2017-07-02T23:18:54.418Z,15.63
2017-07-02T23:21:22.760Z,15.77
2017-07-02T23:23:51.097Z,15.45
2017-07-02T23:26:19.739Z,15.57
2017-07-02T23:28:48.082Z,15.63
2017-07-02T23:31:16.411Z,15.77
2017-07-02T23:33:45.119Z,15.78
2017-07-02T23:36:13.474Z,15.70
2017-07-02T23:38:41.801Z,15.55
2017-07-02T23:41:10.494Z,15.60
2017-07-02T23:43:38.826Z,15.55
2017-07-02T23:46:07.144Z,15.69
2017-07-02T23:48:36.011Z,15.74
2017-07-02T23:51:04.351Z,15.71
2017-07-02T23:53:32.686Z,15.59
2017-07-02T23:56:01.384Z,15.55
2017-07-02T23:58:29.740Z,15.71
